CPX776 Details

Departure: Ben Gurion International Airport (LLBG)
Arrival: Liège Airport (EBLG) at N/A
Route: PURLA2G PURLA L53 KAROL L995 RDS UL609 MES UG18 FSK L608 LONTA L608 DOLEV ERKIR UQ863 GUPIN RIDSU L608 LIRSU
Notes:


Current Weather Information
LLBG 191620Z 30006KT 270V340 9999 FEW040 28/18 Q1010 NOSIG
EBLG 191550Z 25014KT CAVOK 21/09 Q1018 NOSIG